Time;durP1;ratioP1;P1;durP2;ratioP2;P2;SDS_P1;SDS_P2;PMS_P1;PMS_P2;Temp;Humidity;BMP_temperature;BMP_pressure;BME280_temperature;BME280_humidity;BME280_pressure;Samples;Min_cycle;Max_cycle;Signal;HPM_P1;HPM_P2
2021/07/05 00:01:23;;;;;;;13.63;5.07;;;;;;;19.51;68.18;99591.59;5031315;28;20030;-84
2021/07/05 00:03:49;;;;;;;15.20;6.20;;;;;;;19.48;68.93;99584.78;5034978;28;20033;-84
2021/07/05 00:06:14;;;;;;;12.30;6.00;;;;;;;19.40;68.73;99591.03;5035284;28;20029;-84
2021/07/05 00:08:40;;;;;;;16.33;5.15;;;;;;;19.46;68.37;99593.97;5035352;28;20018;-84
2021/07/05 00:11:05;;;;;;;12.43;5.65;;;;;;;19.45;68.93;99593.16;5035234;28;20065;-84
2021/07/05 00:13:32;;;;;;;21.40;5.93;;;;;;;19.38;69.71;99589.56;5036761;28;20061;-84
2021/07/05 00:15:58;;;;;;;12.52;5.50;;;;;;;19.37;69.41;99591.41;5041755;28;20443;-84
2021/07/05 00:18:24;;;;;;;13.00;5.85;;;;;;;19.32;69.42;99583.13;5034822;28;20361;-84
2021/07/05 00:20:49;;;;;;;16.77;7.57;;;;;;;19.22;69.86;99578.06;5035070;28;20030;-84
2021/07/05 00:23:16;;;;;;;16.25;6.63;;;;;;;19.21;70.40;99583.56;5035301;28;20029;-84
2021/07/05 00:25:42;;;;;;;13.65;6.65;;;;;;;19.01;71.16;99575.25;5035116;28;20026;-84
2021/07/05 00:28:08;;;;;;;17.73;6.18;;;;;;;19.16;70.82;99584.09;5035006;28;20033;-84
2021/07/05 00:30:34;;;;;;;17.80;5.93;;;;;;;19.07;71.46;99579.03;5045447;28;20168;-84
2021/07/05 00:33:00;;;;;;;14.45;6.30;;;;;;;19.14;70.83;99570.16;5054119;28;20489;-84
2021/07/05 00:35:26;;;;;;;17.98;5.88;;;;;;;19.17;70.83;99576.94;5054614;28;20021;-84
2021/07/05 00:37:53;;;;;;;13.23;6.10;;;;;;;19.17;70.57;99574.28;5052779;28;20029;-84
2021/07/05 00:40:19;;;;;;;10.38;5.85;;;;;;;19.19;69.98;99577.59;5034604;28;20029;-84
2021/07/05 00:42:45;;;;;;;17.40;6.68;;;;;;;19.04;71.76;99569.59;5035012;28;20026;-85
2021/07/05 00:45:11;;;;;;;16.48;7.70;;;;;;;19.03;72.28;99578.56;5034550;28;20503;-84
2021/07/05 00:47:37;;;;;;;15.15;6.40;;;;;;;19.14;71.50;99575.47;5033267;28;20033;-84
2021/07/05 00:50:05;;;;;;;15.52;6.22;;;;;;;19.13;71.50;99578.31;5034230;28;20028;-84
2021/07/05 00:52:30;;;;;;;18.65;6.60;;;;;;;19.22;70.55;99571.91;5034535;28;20407;-84
2021/07/05 00:54:56;;;;;;;15.98;6.43;;;;;;;19.19;71.39;99572.25;5054473;28;20071;-84
2021/07/05 00:57:23;;;;;;;18.35;7.07;;;;;;;18.97;70.43;99566.78;5054227;28;20541;-83
2021/07/05 00:59:53;;;;;;;14.05;5.55;;;;;;;19.13;70.49;99570.31;5054141;28;20028;-84
2021/07/05 01:02:20;;;;;;;16.45;5.55;;;;;;;19.14;70.13;99569.34;5053913;28;20052;-84
2021/07/05 01:04:46;;;;;;;16.25;6.40;;;;;;;19.14;70.97;99558.69;5054219;28;20032;-84
2021/07/05 01:07:13;;;;;;;17.25;6.85;;;;;;;18.77;71.64;99560.28;5053634;28;20071;-83
2021/07/05 01:09:40;;;;;;;14.38;6.07;;;;;;;18.91;71.82;99566.69;5033939;28;20041;-83
2021/07/05 01:12:06;;;;;;;14.55;5.63;;;;;;;18.97;72.07;99566.78;5033887;28;20485;-83
2021/07/05 01:14:32;;;;;;;15.40;6.00;;;;;;;19.03;72.06;99552.78;5034573;28;20113;-83
2021/07/05 01:16:57;;;;;;;16.23;6.18;;;;;;;19.04;71.77;99558.94;5034138;28;20387;-83
2021/07/05 01:19:23;;;;;;;13.43;5.80;;;;;;;19.02;71.42;99560.97;5034130;28;20036;-83
2021/07/05 01:21:49;;;;;;;18.83;6.35;;;;;;;18.89;69.90;99561.53;5033771;28;20065;-84
2021/07/05 01:24:15;;;;;;;15.35;6.25;;;;;;;19.06;70.88;99550.78;5034592;28;20032;-83
2021/07/05 01:26:40;;;;;;;18.00;6.00;;;;;;;18.99;70.93;99558.66;5034014;28;20514;-83
2021/07/05 01:29:06;;;;;;;19.00;6.40;;;;;;;18.66;72.01;99555.38;5034050;28;20033;-85
2021/07/05 01:31:34;;;;;;;14.65;5.88;;;;;;;18.82;70.32;99561.44;5033523;28;20043;-85
2021/07/05 01:34:00;;;;;;;12.98;5.72;;;;;;;18.92;70.85;99558.53;5034233;28;20026;-82
2021/07/05 01:36:25;;;;;;;17.50;6.00;;;;;;;18.74;71.75;99550.00;5033791;28;20021;-85
2021/07/05 01:38:51;;;;;;;18.98;5.63;;;;;;;18.78;71.25;99559.31;5033508;28;20021;-82
2021/07/05 01:41:18;;;;;;;20.45;6.18;;;;;;;18.74;71.92;99552.66;5036953;28;20032;-85
2021/07/05 01:43:43;;;;;;;15.85;6.90;;;;;;;18.66;72.82;99552.72;5039169;28;20029;-85
2021/07/05 01:46:09;;;;;;;19.92;6.60;;;;;;;18.70;72.82;99551.34;5033771;28;20506;-85
2021/07/05 01:48:35;;;;;;;16.30;5.40;;;;;;;18.74;72.81;99552.66;5033910;28;20030;-83
2021/07/05 01:51:00;;;;;;;19.38;6.93;;;;;;;18.58;73.38;99550.94;5033805;28;20087;-82
2021/07/05 01:53:26;;;;;;;16.05;6.80;;;;;;;18.68;72.76;99548.91;5033708;28;20033;-83
2021/07/05 01:55:53;;;;;;;13.82;6.63;;;;;;;18.71;72.27;99547.72;5038517;28;20067;-82
2021/07/05 01:58:18;;;;;;;21.92;6.45;;;;;;;18.69;72.67;99541.75;5053224;28;20367;-83
2021/07/05 02:00:46;;;;;;;13.43;6.38;;;;;;;18.74;72.13;99542.03;5053432;28;20250;-85
2021/07/05 02:03:12;;;;;;;14.45;6.53;;;;;;;18.57;72.69;99536.84;5052998;28;20518;-83
2021/07/05 02:05:39;;;;;;;13.10;6.10;;;;;;;18.73;72.58;99545.69;5053210;28;20032;-83
2021/07/05 02:08:05;;;;;;;14.40;6.88;;;;;;;18.57;72.88;99544.81;5053484;28;20350;-83
2021/07/05 02:10:34;;;;;;;15.70;6.78;;;;;;;18.58;72.68;99537.66;5040216;28;20029;-83
2021/07/05 02:13:04;;;;;;;15.55;6.85;;;;;;;18.53;72.88;99540.84;5033398;28;20068;-83
2021/07/05 02:15:30;;;;;;;15.63;6.38;;;;;;;18.53;73.69;99540.84;5033230;28;20021;-83
2021/07/05 02:17:55;;;;;;;18.77;6.93;;;;;;;18.23;74.91;99540.72;5033466;28;20037;-83
2021/07/05 02:20:23;;;;;;;20.25;6.55;;;;;;;18.34;74.77;99541.31;5033534;28;20069;-83
2021/07/05 02:22:50;;;;;;;13.88;6.22;;;;;;;18.56;73.54;99540.50;5033188;28;20394;-83
2021/07/05 02:25:17;;;;;;;15.68;6.53;;;;;;;18.48;72.99;99542.38;5044813;28;20027;-83
2021/07/05 02:27:44;;;;;;;15.27;6.28;;;;;;;18.49;73.52;99544.06;5052760;28;20056;-83
2021/07/05 02:30:16;;;;;;;14.52;6.35;;;;;;;18.57;72.92;99539.50;5052708;28;20029;-83
2021/07/05 02:32:43;;;;;;;14.20;6.40;;;;;;;18.51;73.35;99537.53;5052674;28;20466;-83
2021/07/05 02:35:11;;;;;;;14.05;5.97;;;;;;;18.47;73.45;99536.25;5052524;28;20099;-83
2021/07/05 02:37:38;;;;;;;16.42;6.80;;;;;;;18.53;73.46;99535.53;5052741;28;20456;-83
2021/07/05 02:40:06;;;;;;;14.77;6.93;;;;;;;18.46;72.43;99523.94;5039373;28;20048;-83
2021/07/05 02:42:32;;;;;;;17.38;6.13;;;;;;;18.48;72.82;99532.56;5031490;28;20032;-82
2021/07/05 02:44:57;;;;;;;12.48;6.63;;;;;;;18.46;73.43;99528.44;5032626;28;20033;-82
2021/07/05 02:47:22;;;;;;;19.23;6.97;;;;;;;18.42;72.63;99527.97;5032339;28;20090;-83
2021/07/05 02:49:48;;;;;;;10.48;5.97;;;;;;;18.42;73.03;99528.81;5032731;28;20449;-83
2021/07/05 02:52:13;;;;;;;13.77;6.22;;;;;;;18.49;71.81;99525.44;5032584;28;20125;-83
2021/07/05 02:54:38;;;;;;;16.42;6.40;;;;;;;18.47;72.11;99535.44;5045363;28;20486;-83
2021/07/05 02:57:05;;;;;;;12.23;5.68;;;;;;;18.41;73.04;99526.31;5035504;28;20061;-83
2021/07/05 02:59:31;;;;;;;9.55;5.93;;;;;;;18.40;73.11;99535.28;5032989;28;20022;-83
2021/07/05 03:01:56;;;;;;;16.58;5.93;;;;;;;18.49;72.78;99533.41;5032451;28;20069;-83
2021/07/05 03:04:21;;;;;;;14.13;6.28;;;;;;;18.45;72.67;99543.56;5033573;28;20120;-82
2021/07/05 03:06:47;;;;;;;15.80;6.35;;;;;;;18.43;72.33;99540.25;5032611;28;20103;-83
2021/07/05 03:09:12;;;;;;;14.45;6.07;;;;;;;18.43;72.55;99540.25;5032315;28;20029;-83
2021/07/05 03:11:37;;;;;;;12.88;5.55;;;;;;;18.45;72.85;99546.22;5032327;28;20033;-83
2021/07/05 03:14:03;;;;;;;18.42;6.53;;;;;;;18.20;74.25;99551.69;5032477;28;20032;-83
2021/07/05 03:16:28;;;;;;;13.30;7.05;;;;;;;18.32;72.50;99549.44;5032311;28;20027;-83
2021/07/05 03:18:53;;;;;;;16.50;5.95;;;;;;;18.35;73.45;99553.59;5039035;28;20029;-83
2021/07/05 03:21:19;;;;;;;14.63;6.35;;;;;;;18.39;73.65;99549.59;5051792;28;20017;-83
2021/07/05 03:23:45;;;;;;;14.52;5.50;;;;;;;18.39;73.39;99550.41;5051420;28;20052;-83
2021/07/05 03:26:10;;;;;;;17.23;5.80;;;;;;;18.44;73.08;99557.84;5051916;28;20025;-82
2021/07/05 03:28:35;;;;;;;14.35;6.32;;;;;;;18.38;72.95;99554.09;5052273;28;20475;-82
2021/07/05 03:31:02;;;;;;;18.83;6.15;;;;;;;18.40;73.07;99559.22;5051784;28;20379;-83
2021/07/05 03:33:27;;;;;;;14.88;6.20;;;;;;;18.32;72.35;99548.63;5044871;28;20045;-83
2021/07/05 03:35:52;;;;;;;12.82;5.22;;;;;;;18.34;73.31;99551.94;5031786;28;20518;-82
2021/07/05 03:38:18;;;;;;;10.27;5.20;;;;;;;18.40;72.49;99556.53;5031730;28;20021;-84
2021/07/05 03:40:45;;;;;;;20.25;5.80;;;;;;;18.45;72.37;99556.03;5031745;28;20434;-82
2021/07/05 03:43:11;;;;;;;11.60;5.40;;;;;;;18.40;72.79;99548.56;5031721;28;20018;-82
2021/07/05 03:45:38;;;;;;;17.85;5.68;;;;;;;18.47;72.88;99554.84;5031366;28;20029;-85
2021/07/05 03:48:05;;;;;;;16.20;6.35;;;;;;;18.49;71.65;99552.84;5032664;28;20543;-84
2021/07/05 03:50:32;;;;;;;14.27;5.88;;;;;;;18.53;71.91;99551.50;5031490;28;20116;-84
2021/07/05 03:52:58;;;;;;;16.75;5.85;;;;;;;18.50;72.46;99556.31;5031277;28;20037;-84
2021/07/05 03:55:24;;;;;;;15.35;5.95;;;;;;;18.42;72.16;99549.22;5031591;28;20021;-84
2021/07/05 03:57:51;;;;;;;23.02;6.45;;;;;;;18.47;71.14;99544.22;5031769;28;20026;-84
2021/07/05 04:00:20;;;;;;;9.05;5.35;;;;;;;18.41;72.39;99543.09;5031650;28;20490;-84
2021/07/05 04:02:46;;;;;;;15.90;5.95;;;;;;;18.40;72.35;99546.75;5035284;28;20056;-84
2021/07/05 04:05:12;;;;;;;11.55;5.70;;;;;;;18.38;71.20;99542.59;5051251;28;20485;-84
2021/07/05 04:07:40;;;;;;;14.50;6.38;;;;;;;18.28;72.50;99540.19;5066708;28;20494;-84
2021/07/05 04:10:06;;;;;;;18.45;6.20;;;;;;;18.20;73.21;99537.56;5051495;28;20043;-84
2021/07/05 04:12:33;;;;;;;9.90;5.63;;;;;;;18.34;72.09;99549.28;5051612;28;20025;-84
2021/07/05 04:14:59;;;;;;;19.77;6.32;;;;;;;18.19;72.64;99547.38;5051620;28;20021;-84
2021/07/05 04:17:24;;;;;;;15.05;6.05;;;;;;;18.16;72.79;99539.75;5048223;28;20044;-84
2021/07/05 04:19:50;;;;;;;16.40;6.20;;;;;;;18.07;72.69;99542.63;5037965;28;20039;-84
2021/07/05 04:22:17;;;;;;;13.82;6.63;;;;;;;18.15;71.92;99540.75;5050865;28;20104;-84
2021/07/05 04:24:43;;;;;;;16.52;6.53;;;;;;;18.08;73.12;99528.34;5051589;28;20025;-84
2021/07/05 04:27:10;;;;;;;13.85;6.28;;;;;;;18.16;72.97;99538.94;5051427;28;20025;-84
2021/07/05 04:29:37;;;;;;;16.80;6.57;;;;;;;17.96;73.48;99528.72;5051444;28;20057;-84
2021/07/05 04:32:03;;;;;;;15.38;6.80;;;;;;;18.12;73.19;99538.44;5051187;28;20041;-84
2021/07/05 04:34:29;;;;;;;11.00;6.07;;;;;;;18.13;72.58;99531.31;5045142;28;20079;-84
2021/07/05 04:36:55;;;;;;;12.48;5.55;;;;;;;18.06;73.08;99539.13;5031010;28;20033;-84
2021/07/05 04:39:20;;;;;;;14.32;6.30;;;;;;;18.11;72.67;99536.81;5031052;28;20032;-84
2021/07/05 04:41:46;;;;;;;12.50;6.00;;;;;;;17.95;72.54;99532.41;5031280;28;20479;-84
2021/07/05 04:44:13;;;;;;;19.02;7.20;;;;;;;17.83;73.12;99524.00;5048162;28;20040;-84
2021/07/05 04:46:40;;;;;;;14.25;7.15;;;;;;;17.90;72.82;99524.13;5051055;28;20037;-84
2021/07/05 04:49:06;;;;;;;15.43;7.45;;;;;;;17.84;73.19;99522.16;5053748;28;20029;-84
2021/07/05 04:51:31;;;;;;;11.77;6.30;;;;;;;17.77;73.85;99535.28;5054367;28;20094;-84
2021/07/05 04:53:57;;;;;;;13.38;6.80;;;;;;;17.77;73.39;99532.63;5054524;28;20029;-84
2021/07/05 04:56:22;;;;;;;11.80;5.82;;;;;;;17.74;73.48;99527.63;5054556;28;20025;-84
2021/07/05 04:58:47;;;;;;;10.60;6.70;;;;;;;17.71;73.48;99530.63;5053826;28;20037;-84
2021/07/05 05:01:13;;;;;;;14.55;7.18;;;;;;;17.74;73.91;99529.47;5054243;28;20025;-84
2021/07/05 05:03:39;;;;;;;12.07;5.90;;;;;;;17.82;74.31;99530.25;5054684;28;20077;-84
2021/07/05 05:06:05;;;;;;;9.18;5.50;;;;;;;17.80;74.87;99537.56;5048086;28;20128;-84
2021/07/05 05:08:30;;;;;;;11.68;6.63;;;;;;;17.89;73.48;99541.06;5047171;28;20144;-84
2021/07/05 05:10:55;;;;;;;13.32;6.50;;;;;;;17.91;73.33;99536.41;5055011;28;20025;-84
2021/07/05 05:13:21;;;;;;;12.95;5.95;;;;;;;17.96;73.45;99543.84;5054336;28;20033;-84
2021/07/05 05:15:46;;;;;;;16.30;6.65;;;;;;;17.92;74.00;99553.16;5054599;28;20360;-84
2021/07/05 05:18:12;;;;;;;13.70;6.50;;;;;;;18.00;73.22;99542.50;5054027;28;20036;-84
2021/07/05 05:20:37;;;;;;;14.32;5.93;;;;;;;18.00;72.33;99545.16;5054531;28;20033;-84
2021/07/05 05:23:03;;;;;;;14.70;6.57;;;;;;;18.00;72.86;99543.31;5053968;28;20091;-90
2021/07/05 05:25:28;;;;;;;10.23;5.80;;;;;;;18.04;72.49;99538.50;5045488;28;20033;-83
2021/07/05 05:27:54;;;;;;;13.45;6.28;;;;;;;18.10;72.59;99545.75;5049586;28;20036;-83
2021/07/05 05:30:21;;;;;;;15.15;6.40;;;;;;;18.04;72.34;99544.63;5047623;28;20112;-83
2021/07/05 05:32:47;;;;;;;11.90;5.85;;;;;;;18.09;72.23;99532.66;5046913;28;20369;-83
2021/07/05 05:35:15;;;;;;;13.95;5.72;;;;;;;18.13;72.20;99542.78;5052800;28;20025;-83
2021/07/05 05:37:41;;;;;;;16.33;6.05;;;;;;;18.07;72.14;99538.16;5053588;28;20029;-83
2021/07/05 05:40:07;;;;;;;11.00;5.57;;;;;;;18.18;72.60;99544.91;5053544;28;20075;-83
2021/07/05 05:42:32;;;;;;;11.63;5.53;;;;;;;18.28;72.32;99547.31;5052028;28;20057;-83
2021/07/05 05:44:58;;;;;;;14.50;6.00;;;;;;;18.34;71.63;99551.94;5034430;28;20514;-82
2021/07/05 05:47:23;;;;;;;11.95;5.63;;;;;;;18.54;71.33;99544.34;5034208;28;20038;-82
2021/07/05 05:49:48;;;;;;;13.25;5.80;;;;;;;18.75;70.31;99546.34;5033267;28;20079;-82
2021/07/05 05:52:14;;;;;;;11.48;5.72;;;;;;;18.92;70.10;99550.56;5036308;28;20302;-89
2021/07/05 05:54:39;;;;;;;11.27;5.50;;;;;;;19.16;68.83;99546.03;5052148;28;20028;-82
2021/07/05 05:57:05;;;;;;;13.55;5.88;;;;;;;19.32;68.64;99545.84;5053173;28;20025;-82
2021/07/05 05:59:33;;;;;;;15.95;5.95;;;;;;;19.63;67.81;99547.53;5050039;28;20363;-82
2021/07/05 06:01:59;;;;;;;16.63;5.15;;;;;;;19.64;66.66;99549.19;5037665;28;20036;-82
2021/07/05 06:04:24;;;;;;;9.88;4.70;;;;;;;19.60;65.24;99545.22;5032916;28;20026;-82
2021/07/05 06:06:49;;;;;;;8.85;4.57;;;;;;;19.66;64.81;99557.81;5033206;28;20049;-82
2021/07/05 06:09:15;;;;;;;13.80;4.75;;;;;;;19.64;65.58;99561.66;5033156;28;20029;-82
2021/07/05 06:11:41;;;;;;;8.30;4.07;;;;;;;19.65;65.95;99561.50;5032906;28;20075;-82
2021/07/05 06:14:07;;;;;;;11.70;4.18;;;;;;;19.45;66.46;99561.22;5033091;28;20510;-82
2021/07/05 06:16:34;;;;;;;13.32;3.70;;;;;;;19.33;67.02;99558.19;5045447;28;20029;-82
2021/07/05 06:18:59;;;;;;;10.30;4.13;;;;;;;19.39;66.30;99557.44;5052717;28;20485;-82
2021/07/05 06:21:26;;;;;;;12.90;4.53;;;;;;;19.35;67.07;99560.63;5052841;28;20029;-82
2021/07/05 06:23:56;;;;;;;9.77;3.92;;;;;;;19.40;67.44;99559.09;5052754;28;20027;-82
2021/07/05 06:26:22;;;;;;;6.78;3.80;;;;;;;19.60;66.30;99553.22;5052631;28;20387;-82
2021/07/05 06:28:48;;;;;;;11.60;4.30;;;;;;;19.53;66.75;99555.81;5039180;28;20030;-82
2021/07/05 06:31:13;;;;;;;10.88;3.80;;;;;;;19.86;65.27;99560.75;5049229;28;20114;-82
2021/07/05 06:33:39;;;;;;;11.38;4.13;;;;;;;19.71;64.48;99563.44;5052371;28;20025;-82
2021/07/05 06:36:04;;;;;;;11.85;3.55;;;;;;;19.67;65.46;99563.94;5052655;28;20056;-82
2021/07/05 06:38:31;;;;;;;11.88;3.85;;;;;;;19.83;65.80;99566.47;5052762;28;20033;-82
2021/07/05 06:40:57;;;;;;;13.50;4.32;;;;;;;19.95;65.21;99574.81;5052274;28;20025;-82
2021/07/05 06:43:24;;;;;;;9.40;3.80;;;;;;;20.18;63.95;99570.19;5052374;28;20025;-82
2021/07/05 06:45:49;;;;;;;9.55;3.75;;;;;;;20.24;63.03;99563.28;5036264;28;20025;-82
2021/07/05 06:48:15;;;;;;;5.95;3.28;;;;;;;20.32;63.41;99570.31;5032845;28;20387;-82
2021/07/05 06:50:41;;;;;;;9.57;3.60;;;;;;;20.34;63.24;99569.16;5033217;28;20479;-83
2021/07/05 06:53:07;;;;;;;10.25;3.60;;;;;;;20.38;62.43;99566.94;5041036;28;20029;-82
2021/07/05 06:55:32;;;;;;;10.52;4.05;;;;;;;20.11;63.35;99571.13;5039908;28;20100;-82
2021/07/05 06:57:58;;;;;;;6.45;3.50;;;;;;;20.44;62.98;99576.00;5032007;28;20113;-82
2021/07/05 07:00:28;;;;;;;11.23;3.50;;;;;;;20.49;62.04;99579.75;5031762;28;20108;-82
2021/07/05 07:02:55;;;;;;;10.80;4.07;;;;;;;20.39;63.19;99579.22;5046469;28;20029;-82
2021/07/05 07:05:21;;;;;;;6.53;3.67;;;;;;;20.50;63.24;99570.75;5051613;28;20021;-82
2021/07/05 07:07:52;;;;;;;12.23;3.75;;;;;;;20.41;62.26;99582.53;5051386;28;20028;-82
2021/07/05 07:10:19;;;;;;;11.68;4.13;;;;;;;20.40;63.27;99583.56;5051548;28;20116;-82
2021/07/05 07:12:47;;;;;;;13.93;3.17;;;;;;;20.56;61.66;99585.16;5032304;28;20029;-82
2021/07/05 07:15:15;;;;;;;7.85;3.28;;;;;;;20.84;61.27;99581.78;5051549;28;20087;-82
2021/07/05 07:17:45;;;;;;;8.95;4.22;;;;;;;20.97;60.31;99584.53;5038753;28;20029;-83
2021/07/05 07:20:12;;;;;;;8.80;3.45;;;;;;;21.17;60.04;99577.53;5034962;28;20035;-83
2021/07/05 07:22:38;;;;;;;9.93;3.60;;;;;;;21.69;58.27;99583.47;5031509;28;20021;-82
2021/07/05 07:25:10;;;;;;;11.05;3.20;;;;;;;22.11;55.95;99578.94;5046185;28;20372;-82
2021/07/05 07:27:36;;;;;;;;;;;;;;;22.27;56.95;99575.13;5039655;28;20368;-83
2021/07/05 07:30:03;;;;;;;10.80;3.28;;;;;;;22.46;55.40;99573.53;5034804;28;19927;-83
2021/07/05 07:32:28;;;;;;;9.73;2.40;;;;;;;22.11;56.50;99573.59;5046355;28;20063;-83
2021/07/05 07:34:53;;;;;;;9.70;2.67;;;;;;;21.93;56.83;99567.97;5049449;28;20056;-83
2021/07/05 07:37:19;;;;;;;8.38;2.97;;;;;;;22.05;57.16;99570.91;5048906;28;20479;-83
2021/07/05 07:39:48;;;;;;;10.35;2.70;;;;;;;22.51;56.24;99567.56;5051578;28;20379;-83
2021/07/05 07:42:13;;;;;;;10.80;2.97;;;;;;;22.66;55.28;99565.53;5051659;28;20115;-83
2021/07/05 07:44:39;;;;;;;9.18;1.90;;;;;;;22.11;55.26;99568.25;5051164;28;20080;-83
2021/07/05 07:47:06;;;;;;;8.45;2.40;;;;;;;22.05;56.09;99578.91;5046575;28;20059;-83
2021/07/05 07:49:33;;;;;;;11.45;2.50;;;;;;;21.72;56.99;99577.75;5036904;28;20105;-83
2021/07/05 07:51:59;;;;;;;8.00;2.15;;;;;;;21.75;56.21;99590.69;5045869;28;20364;-83
2021/07/05 07:54:25;;;;;;;6.18;2.22;;;;;;;21.96;54.92;99591.66;5045654;28;20064;-82
2021/07/05 07:56:52;;;;;;;11.60;2.40;;;;;;;21.78;55.85;99576.97;5051516;28;20068;-83
2021/07/05 07:59:17;;;;;;;6.40;1.98;;;;;;;22.00;55.70;99576.84;5045708;28;20025;-83
2021/07/05 08:01:42;;;;;;;10.95;2.25;;;;;;;22.94;55.16;99573.38;5047213;28;20532;-83
2021/07/05 08:04:09;;;;;;;6.45;2.03;;;;;;;24.06;51.64;99569.97;5041652;28;20588;-83
2021/07/05 08:06:34;;;;;;;5.93;1.67;;;;;;;24.85;49.05;99565.19;5031576;28;20036;-83
2021/07/05 08:09:01;;;;;;;6.45;1.73;;;;;;;25.51;47.87;99545.84;5030415;28;20379;-83
2021/07/05 08:11:26;;;;;;;8.10;1.75;;;;;;;26.14;47.42;99554.63;5036489;28;20041;-86
2021/07/05 08:13:52;;;;;;;5.00;1.42;;;;;;;26.84;45.61;99547.84;5051490;28;20360;-84
2021/07/05 08:16:17;;;;;;;9.57;1.98;;;;;;;26.74;44.05;99548.44;5045842;28;20196;-88
2021/07/05 08:18:42;;;;;;;6.60;1.85;;;;;;;26.60;43.88;99541.59;5031577;28;20021;-84
2021/07/05 08:21:08;;;;;;;4.65;1.13;;;;;;;27.55;41.73;99548.72;5035554;28;20021;-84
2021/07/05 08:23:33;;;;;;;7.85;1.52;;;;;;;28.20;40.65;99544.09;5052129;28;20044;-84
2021/07/05 08:25:59;;;;;;;7.32;1.95;;;;;;;27.98;39.99;99550.19;5053461;28;20107;-82
2021/07/05 08:28:27;;;;;;;7.63;1.30;;;;;;;26.59;43.17;99556.09;5049402;28;20030;-88
2021/07/05 08:30:54;;;;;;;5.20;1.90;;;;;;;25.42;44.34;99555.22;5044067;28;20057;-83
2021/07/05 08:33:19;;;;;;;6.57;1.60;;;;;;;27.24;42.12;99558.00;5034967;28;20356;-83
2021/07/05 08:35:45;;;;;;;4.30;1.42;;;;;;;28.32;39.72;99552.97;5054844;28;20035;-83
2021/07/05 08:38:10;;;;;;;6.13;1.20;;;;;;;28.56;38.74;99550.19;5036067;28;20021;-83
2021/07/05 08:40:36;;;;;;;6.55;1.10;;;;;;;27.34;39.18;99552.81;5045302;28;20032;-87
2021/07/05 08:43:02;;;;;;;10.75;1.75;;;;;;;27.50;40.08;99546.69;5052998;28;20479;-83
2021/07/05 08:45:28;;;;;;;5.35;1.58;;;;;;;29.25;37.87;99550.78;5048804;28;20117;-83
2021/07/05 08:47:55;;;;;;;3.92;0.82;;;;;;;27.85;37.64;99548.53;5054213;28;20061;-84
2021/07/05 08:50:22;;;;;;;7.68;1.15;;;;;;;26.33;39.28;99541.13;5037693;28;20029;-87
2021/07/05 08:52:48;;;;;;;8.35;0.95;;;;;;;28.43;37.55;99549.38;5034830;28;20403;-88
2021/07/05 08:55:16;;;;;;;14.48;1.95;;;;;;;29.11;35.84;99546.75;5049651;28;20017;-88
2021/07/05 08:57:42;;;;;;;4.68;1.08;;;;;;;30.39;35.43;99534.91;5055422;28;20056;-85
2021/07/05 09:00:13;;;;;;;5.40;1.45;;;;;;;30.97;33.08;99529.72;5034704;28;20064;-85
2021/07/05 09:02:39;;;;;;;5.30;0.95;;;;;;;30.02;33.72;99532.84;5034807;28;20491;-84
2021/07/05 09:05:06;;;;;;;5.97;1.15;;;;;;;28.84;35.75;99539.31;5034659;28;20060;-84
2021/07/05 09:07:31;;;;;;;2.65;0.82;;;;;;;30.12;33.70;99534.84;5041601;28;20510;-84
2021/07/05 09:10:04;;;;;;;4.75;1.10;;;;;;;30.74;32.08;99538.97;5051627;28;20028;-84
2021/07/05 09:12:30;;;;;;;4.30;1.38;;;;;;;31.59;31.42;99538.22;5050164;28;20047;-84
2021/07/05 09:15:07;;;;;;;6.63;0.90;;;;;;;31.99;30.04;99532.16;5034548;28;20463;-84
2021/07/05 09:17:34;;;;;;;6.07;1.23;;;;;;;30.12;31.79;99531.34;5034632;28;20033;-84
2021/07/05 09:20:15;;;;;;;3.72;1.30;;;;;;;30.93;31.37;99541.34;5035109;28;20455;-84
2021/07/05 09:23:13;;;;;;;3.65;1.40;;;;;;;32.30;29.45;99528.72;5033879;28;20041;-84
2021/07/05 09:25:40;;;;;;;6.60;1.15;;;;;;;33.38;28.61;99530.31;5032565;28;20033;-84
2021/07/05 09:28:06;;;;;;;5.68;1.20;;;;;;;33.72;26.05;99540.56;5053894;28;20044;-84
2021/07/05 09:30:41;;;;;;;3.10;0.68;;;;;;;33.90;26.25;99532.88;5047314;28;20108;-84
2021/07/05 09:33:14;;;;;;;7.55;0.80;;;;;;;34.30;26.90;99537.28;5047671;28;20034;-84
2021/07/05 09:35:40;;;;;;;2.53;0.80;;;;;;;34.54;26.08;99528.41;5033544;28;20035;-84
2021/07/05 09:38:05;;;;;;;8.52;1.23;;;;;;;34.32;27.00;99523.38;5036974;28;20029;-84
2021/07/05 09:40:30;;;;;;;5.05;1.00;;;;;;;34.68;26.17;99513.03;5053143;28;20043;-84
2021/07/05 09:42:56;;;;;;;21.55;1.45;;;;;;;35.76;24.16;99514.63;5047511;28;20021;-85
2021/07/05 09:45:32;;;;;;;3.67;0.70;;;;;;;35.52;24.47;99517.38;5033493;28;20025;-84
2021/07/05 09:48:10;;;;;;;2.10;0.57;;;;;;;33.77;26.33;99504.34;5033894;28;20026;-84
2021/07/05 09:50:35;;;;;;;4.57;0.88;;;;;;;35.01;24.97;99499.63;5041861;28;20090;-85
2021/07/05 09:53:34;;;;;;;8.05;1.50;;;;;;;35.63;24.56;99501.69;5051505;28;20379;-84
2021/07/05 09:56:22;;;;;;;2.10;0.63;;;;;;;35.44;26.00;99494.25;5033540;28;20057;-85
2021/07/05 09:58:50;;;;;;;1.98;0.63;;;;;;;36.25;24.92;99493.50;5033136;28;20033;-85
2021/07/05 10:01:49;;;;;;;2.97;0.60;;;;;;;36.60;22.99;99486.63;5033373;28;20068;-85
2021/07/05 10:04:25;;;;;;;5.82;0.90;;;;;;;36.47;24.63;99473.72;5022286;28;20052;-85
2021/07/05 10:06:52;;;;;;;4.05;0.60;;;;;;;36.23;24.39;99480.13;5037630;28;20399;-85
2021/07/05 10:09:20;;;;;;;1.70;0.60;;;;;;;35.31;25.31;99473.13;5034162;28;20025;-85
2021/07/05 10:11:46;;;;;;;2.95;0.60;;;;;;;33.33;26.01;99484.06;5038825;28;20106;-84
2021/07/05 10:14:22;;;;;;;3.20;0.57;;;;;;;33.24;26.47;99483.03;5052745;28;20068;-85
2021/07/05 10:16:49;;;;;;;4.53;0.88;;;;;;;31.26;27.97;99485.97;5047197;28;20028;-85
2021/07/05 10:19:16;;;;;;;6.40;0.95;;;;;;;33.55;25.81;99481.00;5035772;28;20114;-85
2021/07/05 10:21:43;;;;;;;3.47;0.60;;;;;;;34.63;23.93;99483.06;5032733;28;20491;-84
2021/07/05 10:24:08;;;;;;;2.58;1.10;;;;;;;35.41;23.32;99481.22;5044279;28;20029;-85
2021/07/05 10:26:36;;;;;;;3.08;0.52;;;;;;;36.43;21.60;99480.91;5045037;28;20021;-85
2021/07/05 10:29:03;;;;;;;2.92;0.70;;;;;;;36.23;23.40;99476.56;5046194;28;20479;-85
2021/07/05 10:31:29;;;;;;;2.05;0.60;;;;;;;37.24;21.23;99467.69;5052017;28;20044;-84
2021/07/05 10:33:59;;;;;;;3.30;0.60;;;;;;;37.50;23.02;99475.38;5050083;28;20095;-84
2021/07/05 10:36:34;;;;;;;2.50;0.80;;;;;;;37.34;23.00;99476.81;5052590;28;20025;-84
2021/07/05 10:39:03;;;;;;;2.35;0.60;;;;;;;36.81;24.00;99478.91;5049796;28;20266;-84
2021/07/05 10:41:37;;;;;;;3.30;0.90;;;;;;;36.18;21.88;99487.56;5051572;28;20035;-82
2021/07/05 10:44:05;;;;;;;4.65;0.82;;;;;;;35.86;24.00;99492.69;5032620;28;20032;-82
2021/07/05 10:46:49;;;;;;;1.95;0.32;;;;;;;35.87;22.05;99488.81;5046293;28;20028;-82
2021/07/05 10:49:32;;;;;;;2.10;0.50;;;;;;;35.80;23.74;99476.63;5047214;28;20543;-82
2021/07/05 10:52:12;;;;;;;1.98;0.60;;;;;;;34.32;23.88;99485.22;5039475;28;20048;-83
2021/07/05 10:54:46;;;;;;;1.98;0.52;;;;;;;34.03;23.83;99479.69;5037321;28;20021;-84
2021/07/05 10:57:14;;;;;;;63.72;36.55;;;;;;;33.73;24.40;99478.75;5045629;28;20113;-82
2021/07/05 10:59:50;;;;;;;5.22;2.00;;;;;;;33.50;24.30;99472.84;5032243;28;20068;-84
2021/07/05 11:02:34;;;;;;;11.35;3.53;;;;;;;33.48;23.80;99472.31;5038332;28;20029;-82
2021/07/05 11:05:00;;;;;;;3.55;0.90;;;;;;;32.24;25.27;99479.00;5042389;28;20029;-82
2021/07/05 11:07:44;;;;;;;2.90;1.13;;;;;;;31.66;26.08;99486.44;5034788;28;20029;-82
2021/07/05 11:10:23;;;;;;;2.85;0.60;;;;;;;30.73;29.30;99480.47;5041582;28;20017;-83
2021/07/05 11:13:04;;;;;;;3.55;0.77;;;;;;;30.22;30.28;99471.88;5031875;28;20420;-82
2021/07/05 11:15:52;;;;;;;3.15;0.75;;;;;;;30.43;30.28;99462.88;5044766;28;20029;-82
2021/07/05 11:18:36;;;;;;;1.75;0.57;;;;;;;30.34;31.13;99459.00;5041419;28;20386;-82
2021/07/05 11:21:05;;;;;;;2.50;0.73;;;;;;;30.90;30.39;99460.53;5038548;28;20124;-85
2021/07/05 11:23:56;;;;;;;3.40;1.00;;;;;;;31.68;28.43;99454.44;5049313;28;20552;-82
2021/07/05 11:26:25;;;;;;;5.97;0.85;;;;;;;31.62;27.69;99451.69;5043201;28;20033;-82
2021/07/05 11:29:15;;;;;;;2.63;0.60;;;;;;;32.09;27.05;99449.09;5032366;28;20033;-82
2021/07/05 11:32:02;;;;;;;4.35;0.90;;;;;;;31.80;26.30;99441.44;5050090;28;20263;-82